Time;durP1;ratioP1;P1;durP2;ratioP2;P2;SDS_P1;SDS_P2;PMS_P1;PMS_P2;Temp;Humidity;BMP_temperature;BMP_pressure;BME280_temperature;BME280_humidity;BME280_pressure;Samples;Min_cycle;Max_cycle;Signal;HPM_P1;HPM_P2
2022/09/01 00:01:38;;;;;;;22.20;20.90;;;;;;;;;;5037169;28;20437;-79
2022/09/01 00:04:08;;;;;;;21.77;20.57;;;;;;;;;;5038961;28;20480;-79
2022/09/01 00:06:37;;;;;;;21.40;20.20;;;;;;;;;;5039038;28;20410;-80
2022/09/01 00:09:05;;;;;;;22.07;20.87;;;;;;;;;;5038230;28;20988;-79
2022/09/01 00:11:33;;;;;;;22.33;21.13;;;;;;;;;;5037961;28;20435;-78
2022/09/01 00:14:01;;;;;;;22.27;20.87;;;;;;;;;;5038541;28;20419;-79
2022/09/01 00:16:29;;;;;;;21.93;20.73;;;;;;;;;;5036938;28;20408;-79
2022/09/01 00:18:57;;;;;;;21.37;20.27;;;;;;;;;;5042629;28;20444;-78
2022/09/01 00:21:27;;;;;;;21.73;20.57;;;;;;;;;;5052414;28;20449;-79
2022/09/01 00:23:54;;;;;;;22.00;20.80;;;;;;;;;;5052456;28;20451;-79
2022/09/01 00:26:22;;;;;;;22.20;21.00;;;;;;;;;;5052483;28;20448;-79
2022/09/01 00:28:50;;;;;;;21.60;20.40;;;;;;;;;;5051501;28;20485;-79
2022/09/01 00:31:18;;;;;;;21.70;20.50;;;;;;;;;;5042174;28;20428;-78
2022/09/01 00:33:46;;;;;;;21.50;20.40;;;;;;;;;;5038194;28;20476;-79
2022/09/01 00:36:14;;;;;;;22.80;21.53;;;;;;;;;;5038882;28;20441;-79
2022/09/01 00:38:43;;;;;;;22.43;21.23;;;;;;;;;;5036790;28;20460;-79
2022/09/01 00:41:10;;;;;;;21.57;20.47;;;;;;;;;;5037694;28;20431;-79
2022/09/01 00:43:39;;;;;;;22.03;20.83;;;;;;;;;;5038486;28;20438;-78
2022/09/01 00:46:07;;;;;;;22.60;21.30;;;;;;;;;;5038960;28;20431;-78
2022/09/01 00:48:36;;;;;;;21.97;20.73;;;;;;;;;;5039448;28;20559;-78
2022/09/01 00:51:04;;;;;;;22.20;20.70;;;;;;;;;;5035977;28;20430;-79
2022/09/01 00:53:32;;;;;;;21.90;20.60;;;;;;;;;;5036777;28;20416;-78
2022/09/01 00:56:00;;;;;;;22.10;20.90;;;;;;;;;;5037818;28;20430;-79
2022/09/01 00:58:28;;;;;;;21.77;20.50;;;;;;;;;;5037128;28;20945;-79
2022/09/01 01:00:56;;;;;;;21.73;20.53;;;;;;;;;;5040039;28;20811;-79
2022/09/01 01:03:23;;;;;;;21.50;20.30;;;;;;;;;;5039948;28;20428;-79
2022/09/01 01:05:53;;;;;;;21.53;20.23;;;;;;;;;;5039694;28;20437;-79
2022/09/01 01:08:29;;;;;;;22.47;21.20;;;;;;;;;;5035735;28;20470;-79
2022/09/01 01:10:57;;;;;;;22.20;21.00;;;;;;;;;;5036435;28;20477;-79
2022/09/01 01:13:26;;;;;;;21.40;20.20;;;;;;;;;;5041089;28;20929;-79
2022/09/01 01:15:54;;;;;;;21.83;20.53;;;;;;;;;;5036567;28;20503;-79
2022/09/01 01:18:21;;;;;;;22.57;20.60;;;;;;;;;;5038649;28;20449;-79
2022/09/01 01:23:37;;;;;;;20.90;19.80;;;;;;;;;;5036392;28;20384;-79
2022/09/01 01:26:08;;;;;;;21.90;20.70;;;;;;;;;;5036844;28;20432;-78
2022/09/01 01:28:37;;;;;;;21.17;20.00;;;;;;;;;;5037307;28;20462;-78
2022/09/01 01:31:10;;;;;;;21.80;20.40;;;;;;;;;;5035517;28;20438;-78
2022/09/01 01:33:40;;;;;;;22.43;21.23;;;;;;;;;;5036969;28;20843;-79
2022/09/01 01:36:11;;;;;;;21.60;20.50;;;;;;;;;;5036624;28;20448;-78
2022/09/01 01:38:41;;;;;;;21.37;20.20;;;;;;;;;;5036621;28;20443;-78
2022/09/01 01:41:10;;;;;;;22.47;21.10;;;;;;;;;;5036901;28;20947;-78
2022/09/01 01:43:38;;;;;;;21.83;20.50;;;;;;;;;;5036891;28;20441;-78
2022/09/01 01:46:06;;;;;;;22.20;20.90;;;;;;;;;;5037268;28;20995;-79
2022/09/01 01:48:35;;;;;;;21.47;20.37;;;;;;;;;;5035454;28;20460;-79
2022/09/01 01:51:03;;;;;;;22.40;21.17;;;;;;;;;;5034965;28;20461;-79
2022/09/01 01:53:31;;;;;;;21.43;20.33;;;;;;;;;;5035183;28;20419;-79
2022/09/01 01:55:59;;;;;;;22.40;21.17;;;;;;;;;;5035864;28;20449;-78
2022/09/01 01:58:29;;;;;;;22.70;21.40;;;;;;;;;;5034846;28;20589;-79
2022/09/01 02:00:57;;;;;;;22.13;20.93;;;;;;;;;;5035395;28;20786;-79
2022/09/01 02:03:35;;;;;;;22.03;20.83;;;;;;;;;;5035810;28;20535;-78
2022/09/01 02:06:07;;;;;;;21.63;20.43;;;;;;;;;;5035639;28;20490;-78
2022/09/01 02:08:35;;;;;;;21.73;20.53;;;;;;;;;;5035427;28;20457;-79
2022/09/01 02:11:02;;;;;;;22.40;21.10;;;;;;;;;;5036587;28;20428;-77
2022/09/01 02:13:31;;;;;;;21.73;20.53;;;;;;;;;;5034681;28;20451;-78
2022/09/01 02:16:01;;;;;;;22.87;21.20;;;;;;;;;;5036283;28;20470;-78
2022/09/01 02:18:29;;;;;;;21.10;19.90;;;;;;;;;;5037180;28;20477;-78
2022/09/01 02:20:57;;;;;;;21.83;20.60;;;;;;;;;;5047698;28;20424;-77
2022/09/01 02:23:25;;;;;;;21.50;20.40;;;;;;;;;;5037694;28;20454;-78
2022/09/01 02:25:53;;;;;;;22.17;20.97;;;;;;;;;;5037082;28;20460;-79
2022/09/01 02:28:21;;;;;;;21.10;20.00;;;;;;;;;;5036137;28;20444;-78
2022/09/01 02:30:53;;;;;;;22.50;21.40;;;;;;;;;;5035687;28;20561;-78
2022/09/01 02:33:21;;;;;;;22.60;21.20;;;;;;;;;;5038023;28;20464;-79
2022/09/01 02:35:49;;;;;;;22.70;21.40;;;;;;;;;;5034144;28;20435;-78
2022/09/01 02:38:19;;;;;;;21.43;20.13;;;;;;;;;;5036647;28;20458;-78
2022/09/01 02:40:47;;;;;;;21.40;20.30;;;;;;;;;;5035938;28;20557;-78
2022/09/01 02:43:19;;;;;;;21.73;20.60;;;;;;;;;;5034053;28;20434;-79
2022/09/01 02:45:46;;;;;;;21.63;20.30;;;;;;;;;;5035072;28;20442;-78
2022/09/01 02:48:17;;;;;;;20.90;19.80;;;;;;;;;;5033614;28;20457;-79
2022/09/01 02:50:44;;;;;;;21.63;20.47;;;;;;;;;;5033798;28;20539;-78
2022/09/01 02:53:14;;;;;;;21.37;20.27;;;;;;;;;;5033459;28;20448;-79
2022/09/01 02:55:42;;;;;;;21.13;20.03;;;;;;;;;;5034319;28;20414;-78
2022/09/01 02:58:13;;;;;;;21.27;20.17;;;;;;;;;;5033862;28;20949;-79
2022/09/01 03:00:40;;;;;;;21.27;20.17;;;;;;;;;;5033915;28;20473;-79
2022/09/01 03:03:08;;;;;;;21.87;20.67;;;;;;;;;;5033584;28;20452;-78
2022/09/01 03:05:38;;;;;;;21.00;19.80;;;;;;;;;;5035985;28;20445;-78
2022/09/01 03:08:06;;;;;;;21.90;20.70;;;;;;;;;;5036853;28;20788;-78
2022/09/01 03:10:36;;;;;;;21.70;20.30;;;;;;;;;;5035060;28;20472;-78
2022/09/01 03:13:07;;;;;;;21.40;20.20;;;;;;;;;;5034279;28;20944;-79
2022/09/01 03:15:35;;;;;;;21.63;20.23;;;;;;;;;;5037749;28;20415;-78
2022/09/01 03:18:03;;;;;;;21.27;20.17;;;;;;;;;;5034502;28;20497;-78
2022/09/01 03:20:32;;;;;;;21.87;20.47;;;;;;;;;;5034047;28;20454;-78
2022/09/01 03:23:03;;;;;;;22.57;21.27;;;;;;;;;;5033481;28;20431;-78
2022/09/01 03:25:31;;;;;;;21.77;20.47;;;;;;;;;;5033904;28;20408;-78
2022/09/01 03:28:00;;;;;;;21.60;20.33;;;;;;;;;;5034202;28;20522;-78
2022/09/01 03:30:28;;;;;;;21.73;20.63;;;;;;;;;;5033471;28;20475;-79
2022/09/01 03:32:56;;;;;;;22.13;20.53;;;;;;;;;;5033825;28;20435;-77
2022/09/01 03:35:24;;;;;;;21.77;20.67;;;;;;;;;;5033134;28;20478;-78
2022/09/01 03:37:51;;;;;;;21.23;20.03;;;;;;;;;;5037073;28;20451;-78
2022/09/01 03:40:20;;;;;;;21.43;20.33;;;;;;;;;;5037252;28;20448;-79
2022/09/01 03:42:47;;;;;;;21.67;20.57;;;;;;;;;;5037140;28;20452;-78
2022/09/01 03:45:15;;;;;;;20.73;19.63;;;;;;;;;;5036698;28;20428;-78
2022/09/01 03:47:42;;;;;;;21.10;19.90;;;;;;;;;;5037133;28;20462;-77
2022/09/01 03:50:16;;;;;;;21.50;20.30;;;;;;;;;;5036640;28;20462;-78
2022/09/01 03:52:44;;;;;;;21.17;19.97;;;;;;;;;;5036672;28;20497;-79
2022/09/01 03:55:12;;;;;;;20.93;19.70;;;;;;;;;;5036686;28;20804;-79
2022/09/01 03:57:41;;;;;;;20.80;19.70;;;;;;;;;;5036993;28;20422;-79
2022/09/01 04:00:21;;;;;;;20.57;19.57;;;;;;;;;;5036594;28;20726;-78
2022/09/01 04:02:49;;;;;;;20.50;19.50;;;;;;;;;;5036536;28;20513;-78
2022/09/01 04:05:18;;;;;;;20.37;19.13;;;;;;;;;;5036689;28;20451;-78
2022/09/01 04:07:47;;;;;;;20.33;19.23;;;;;;;;;;5036830;28;20464;-78
2022/09/01 04:10:15;;;;;;;20.67;19.47;;;;;;;;;;5036010;28;20523;-78
2022/09/01 04:12:43;;;;;;;21.40;20.17;;;;;;;;;;5036093;28;20947;-78
2022/09/01 04:15:11;;;;;;;21.07;19.60;;;;;;;;;;5036278;28;20415;-78
2022/09/01 04:20:24;;;;;;;21.17;19.97;;;;;;;;;;5036503;28;20433;-78
2022/09/01 04:22:51;;;;;;;20.90;19.50;;;;;;;;;;5036175;28;20512;-78
2022/09/01 04:25:25;;;;;;;20.40;19.30;;;;;;;;;;5035771;28;20468;-78
2022/09/01 04:27:56;;;;;;;20.60;19.50;;;;;;;;;;5036665;28;20802;-79
2022/09/01 04:30:30;;;;;;;20.67;19.57;;;;;;;;;;5036094;28;20868;-77
2022/09/01 04:32:58;;;;;;;20.57;19.50;;;;;;;;;;5036311;28;20415;-78
2022/09/01 04:35:31;;;;;;;21.70;20.33;;;;;;;;;;5035436;28;20535;-79
2022/09/01 04:38:00;;;;;;;21.73;20.50;;;;;;;;;;5036934;28;20434;-78
2022/09/01 04:40:27;;;;;;;21.60;20.40;;;;;;;;;;5035632;28;20501;-78
2022/09/01 04:42:56;;;;;;;20.60;19.30;;;;;;;;;;5037432;28;20426;-79
2022/09/01 04:45:28;;;;;;;20.83;19.70;;;;;;;;;;5035915;28;20418;-78
2022/09/01 04:47:55;;;;;;;20.87;19.67;;;;;;;;;;5036447;28;20819;-79
2022/09/01 04:50:26;;;;;;;21.23;20.13;;;;;;;;;;5036142;28;20469;-76
2022/09/01 04:52:55;;;;;;;20.97;19.67;;;;;;;;;;5036115;28;20524;-76
2022/09/01 04:55:25;;;;;;;21.07;19.83;;;;;;;;;;5035079;28;20901;-77
2022/09/01 04:57:53;;;;;;;21.87;20.57;;;;;;;;;;5034952;28;20788;-78
2022/09/01 05:00:22;;;;;;;20.90;19.80;;;;;;;;;;5035411;28;20820;-78
2022/09/01 05:02:52;;;;;;;20.13;19.13;;;;;;;;;;5037327;28;20451;-78
2022/09/01 05:05:20;;;;;;;20.30;19.10;;;;;;;;;;5035496;28;20443;-76
2022/09/01 05:07:51;;;;;;;20.40;19.20;;;;;;;;;;5036153;28;20938;-76
2022/09/01 05:10:20;;;;;;;20.20;19.13;;;;;;;;;;5036381;28;21251;-77
2022/09/01 05:12:47;;;;;;;20.30;19.00;;;;;;;;;;5034010;28;20445;-76
2022/09/01 05:15:16;;;;;;;20.20;19.10;;;;;;;;;;5036138;28;20414;-75
2022/09/01 05:17:44;;;;;;;21.00;19.80;;;;;;;;;;5035306;28;20430;-77
2022/09/01 05:20:12;;;;;;;20.03;19.03;;;;;;;;;;5036002;28;20433;-77
2022/09/01 05:22:41;;;;;;;20.00;19.00;;;;;;;;;;5034056;28;20451;-77
2022/09/01 05:25:13;;;;;;;20.70;19.60;;;;;;;;;;5034102;28;20448;-77
2022/09/01 05:27:41;;;;;;;20.87;19.33;;;;;;;;;;5034286;28;20408;-77
2022/09/01 05:30:09;;;;;;;20.40;19.30;;;;;;;;;;5033658;28;21067;-76
2022/09/01 05:32:38;;;;;;;20.50;19.20;;;;;;;;;;5034113;28;20498;-77
2022/09/01 05:35:08;;;;;;;20.83;19.60;;;;;;;;;;5034842;28;20539;-76
2022/09/01 05:37:37;;;;;;;20.67;19.47;;;;;;;;;;5034740;28;20427;-76
2022/09/01 05:40:06;;;;;;;20.00;19.00;;;;;;;;;;5033469;28;20528;-76
2022/09/01 05:42:33;;;;;;;20.60;19.50;;;;;;;;;;5034756;28;20427;-77
2022/09/01 05:45:00;;;;;;;20.50;19.40;;;;;;;;;;5034346;28;20418;-76
2022/09/01 05:47:28;;;;;;;20.17;19.07;;;;;;;;;;5034055;28;20429;-77
2022/09/01 05:49:57;;;;;;;20.20;19.10;;;;;;;;;;5033905;28;20520;-76
2022/09/01 05:52:26;;;;;;;21.03;19.90;;;;;;;;;;5033096;28;20426;-76
2022/09/01 05:54:54;;;;;;;21.10;19.53;;;;;;;;;;5033712;28;20480;-76
2022/09/01 05:57:21;;;;;;;20.47;19.47;;;;;;;;;;5033880;28;20435;-77
2022/09/01 05:59:52;;;;;;;19.93;18.83;;;;;;;;;;5032484;28;20469;-77
2022/09/01 06:02:20;;;;;;;20.67;19.40;;;;;;;;;;5033120;28;20875;-76
2022/09/01 06:04:48;;;;;;;20.63;19.50;;;;;;;;;;5033495;28;20509;-77
2022/09/01 06:07:16;;;;;;;20.47;19.47;;;;;;;;;;5038565;28;20422;-76
2022/09/01 06:09:47;;;;;;;19.60;18.70;;;;;;;;;;5046465;28;20499;-76
2022/09/01 06:12:22;;;;;;;20.47;19.47;;;;;;;;;;5033654;28;20402;-76
2022/09/01 06:14:50;;;;;;;19.80;18.70;;;;;;;;;;5034270;28;20456;-77
2022/09/01 06:17:23;;;;;;;20.10;19.00;;;;;;;;;;5033085;28;20460;-77
2022/09/01 06:19:51;;;;;;;20.00;18.90;;;;;;;;;;5033073;28;20529;-77
2022/09/01 06:22:19;;;;;;;20.37;19.17;;;;;;;;;;5032307;28;20479;-76
2022/09/01 06:24:50;;;;;;;20.50;19.00;;;;;;;;;;5033440;28;20483;-76
2022/09/01 06:27:19;;;;;;;20.33;19.23;;;;;;;;;;5033539;28;20431;-76
2022/09/01 06:29:52;;;;;;;20.80;19.50;;;;;;;;;;5033175;28;20482;-76
2022/09/01 06:32:20;;;;;;;20.20;19.10;;;;;;;;;;5031641;28;20463;-75
2022/09/01 06:34:50;;;;;;;20.93;19.73;;;;;;;;;;5032159;28;20485;-76
2022/09/01 06:37:21;;;;;;;21.00;19.80;;;;;;;;;;5032922;28;20551;-77
2022/09/01 06:39:50;;;;;;;19.87;18.77;;;;;;;;;;5032880;28;20487;-76
2022/09/01 06:42:18;;;;;;;20.53;19.43;;;;;;;;;;5033021;28;20458;-76
2022/09/01 06:44:46;;;;;;;20.57;19.40;;;;;;;;;;5032919;28;20819;-77
2022/09/01 06:47:14;;;;;;;20.30;19.20;;;;;;;;;;5033280;28;20417;-76
2022/09/01 06:49:41;;;;;;;21.60;20.40;;;;;;;;;;5033498;28;20498;-76
2022/09/01 06:52:10;;;;;;;20.30;19.20;;;;;;;;;;5034183;28;20451;-78
2022/09/01 06:54:40;;;;;;;21.17;19.63;;;;;;;;;;5034557;28;20432;-76
2022/09/01 06:57:08;;;;;;;20.10;19.10;;;;;;;;;;5032987;28;20523;-77
2022/09/01 06:59:36;;;;;;;21.50;20.40;;;;;;;;;;5032573;28;20489;-76
2022/09/01 07:02:03;;;;;;;21.50;20.20;;;;;;;;;;5032342;28;20427;-76
2022/09/01 07:04:31;;;;;;;20.53;19.43;;;;;;;;;;5033044;28;20539;-77
2022/09/01 07:06:59;;;;;;;21.47;20.27;;;;;;;;;;5033436;28;20502;-78
2022/09/01 07:09:26;;;;;;;21.23;20.03;;;;;;;;;;5032754;28;21031;-76
2022/09/01 07:11:54;;;;;;;21.00;19.90;;;;;;;;;;5036338;28;20855;-76
2022/09/01 07:14:23;;;;;;;20.57;19.47;;;;;;;;;;5037088;28;20823;-76
2022/09/01 07:16:51;;;;;;;21.17;19.87;;;;;;;;;;5041044;28;20945;-76
2022/09/01 07:19:18;;;;;;;21.67;20.47;;;;;;;;;;5036718;28;20442;-76
2022/09/01 07:21:45;;;;;;;21.20;20.00;;;;;;;;;;5035967;28;20434;-77
2022/09/01 07:24:17;;;;;;;21.70;20.50;;;;;;;;;;5036598;28;20951;-77
2022/09/01 07:26:44;;;;;;;21.23;19.97;;;;;;;;;;5036765;28;20436;-81
2022/09/01 07:29:12;;;;;;;21.77;20.57;;;;;;;;;;5053385;28;20574;-80
2022/09/01 07:31:42;;;;;;;21.73;20.63;;;;;;;;;;5056833;28;20489;-80
2022/09/01 07:34:11;;;;;;;22.23;21.03;;;;;;;;;;5056598;28;20453;-77
2022/09/01 07:36:39;;;;;;;21.37;20.17;;;;;;;;;;5055542;28;20485;-81
2022/09/01 07:39:07;;;;;;;21.27;20.17;;;;;;;;;;5037319;28;20443;-80
2022/09/01 07:41:34;;;;;;;22.90;21.60;;;;;;;;;;5036863;28;20446;-82
2022/09/01 07:44:04;;;;;;;22.17;20.97;;;;;;;;;;5046104;28;20441;-81
2022/09/01 07:46:32;;;;;;;21.90;20.50;;;;;;;;;;5058183;28;20521;-81
2022/09/01 07:49:01;;;;;;;21.90;20.70;;;;;;;;;;5057062;28;20453;-82
2022/09/01 07:51:30;;;;;;;21.80;20.60;;;;;;;;;;5057988;28;20474;-78
2022/09/01 07:54:00;;;;;;;22.80;21.50;;;;;;;;;;5058389;28;20436;-81
2022/09/01 07:56:29;;;;;;;21.70;20.47;;;;;;;;;;5056734;28;20470;-81
2022/09/01 07:58:57;;;;;;;21.97;20.87;;;;;;;;;;5055879;28;20462;-79
2022/09/01 08:01:25;;;;;;;22.37;21.17;;;;;;;;;;5056187;28;20448;-80
2022/09/01 08:03:54;;;;;;;21.77;20.67;;;;;;;;;;5056858;28;20459;-80
2022/09/01 08:06:25;;;;;;;22.03;20.90;;;;;;;;;;5056618;28;20486;-79
2022/09/01 08:08:53;;;;;;;21.73;20.53;;;;;;;;;;5056931;28;20454;-80
2022/09/01 08:11:21;;;;;;;21.23;20.13;;;;;;;;;;5055565;28;20465;-76
2022/09/01 08:13:49;;;;;;;22.63;21.43;;;;;;;;;;5056878;28;20421;-75
2022/09/01 08:16:16;;;;;;;22.87;21.67;;;;;;;;;;5056004;28;20449;-75
2022/09/01 08:18:46;;;;;;;22.97;21.77;;;;;;;;;;5057385;28;20472;-76
2022/09/01 08:21:15;;;;;;;23.33;22.07;;;;;;;;;;5058419;28;20555;-76
2022/09/01 08:23:43;;;;;;;22.47;21.27;;;;;;;;;;5059634;28;20427;-76
2022/09/01 08:26:14;;;;;;;22.13;21.03;;;;;;;;;;5065460;28;20451;-78
2022/09/01 08:28:42;;;;;;;23.47;22.27;;;;;;;;;;5061212;28;20500;-79
2022/09/01 08:31:09;;;;;;;22.90;21.70;;;;;;;;;;5058246;28;20971;-80
2022/09/01 08:33:37;;;;;;;23.47;22.27;;;;;;;;;;5061293;28;20460;-78
2022/09/01 08:36:04;;;;;;;22.97;21.57;;;;;;;;;;5058769;28;20429;-78
2022/09/01 08:38:33;;;;;;;23.17;21.97;;;;;;;;;;5060150;28;20449;-78
2022/09/01 08:41:02;;;;;;;22.73;21.53;;;;;;;;;;5058590;28;20442;-78
2022/09/01 08:43:36;;;;;;;22.33;21.13;;;;;;;;;;5057667;28;20470;-78
2022/09/01 08:46:08;;;;;;;23.17;21.97;;;;;;;;;;5057750;28;20442;-78
2022/09/01 08:48:38;;;;;;;22.23;21.03;;;;;;;;;;5058566;28;20450;-78
2022/09/01 08:51:11;;;;;;;22.40;21.20;;;;;;;;;;5057932;28;20449;-77
2022/09/01 08:53:42;;;;;;;22.43;21.10;;;;;;;;;;5057052;28;20458;-78
2022/09/01 08:56:12;;;;;;;21.90;20.70;;;;;;;;;;5056103;28;20468;-78
2022/09/01 08:58:39;;;;;;;22.60;21.23;;;;;;;;;;5057756;28;20477;-78
2022/09/01 09:01:11;;;;;;;22.70;21.30;;;;;;;;;;5056977;28;20419;-78
2022/09/01 09:03:43;;;;;;;22.47;21.20;;;;;;;;;;5056605;28;20868;-78
2022/09/01 09:06:14;;;;;;;22.40;21.20;;;;;;;;;;5058961;28;20406;-78
2022/09/01 09:08:50;;;;;;;21.87;20.57;;;;;;;;;;5059621;28;20469;-78
2022/09/01 09:11:28;;;;;;;22.57;21.10;;;;;;;;;;5057902;28;20446;-79
2022/09/01 09:14:02;;;;;;;23.10;21.80;;;;;;;;;;5058774;28;20494;-78
2022/09/01 09:16:30;;;;;;;21.80;20.70;;;;;;;;;;5056518;28;20407;-78
2022/09/01 09:18:59;;;;;;;23.30;22.10;;;;;;;;;;5057047;28;20486;-78
2022/09/01 09:21:29;;;;;;;21.73;20.63;;;;;;;;;;5055886;28;20828;-77
2022/09/01 09:23:59;;;;;;;21.90;20.70;;;;;;;;;;5055186;28;20424;-78
2022/09/01 09:26:30;;;;;;;22.37;21.17;;;;;;;;;;5055910;28;20420;-78
2022/09/01 09:28:58;;;;;;;24.00;21.87;;;;;;;;;;5055531;28;20462;-78
2022/09/01 09:31:26;;;;;;;23.10;21.80;;;;;;;;;;5054623;28;20462;-79
2022/09/01 09:33:53;;;;;;;24.10;22.63;;;;;;;;;;5053902;28;20447;-78
2022/09/01 09:36:22;;;;;;;23.90;22.50;;;;;;;;;;5055652;28;20424;-77
2022/09/01 09:39:03;;;;;;;22.50;21.20;;;;;;;;;;5055267;28;20492;-78
2022/09/01 09:41:32;;;;;;;23.20;21.73;;;;;;;;;;5055323;28;20758;-79
2022/09/01 09:44:01;;;;;;;22.50;21.30;;;;;;;;;;5055265;28;20467;-78
2022/09/01 09:46:34;;;;;;;22.37;21.17;;;;;;;;;;5054996;28;20504;-78
2022/09/01 09:49:09;;;;;;;22.93;21.67;;;;;;;;;;5055551;28;20439;-78
2022/09/01 09:51:37;;;;;;;22.10;20.83;;;;;;;;;;5054553;28;20476;-78
2022/09/01 09:54:12;;;;;;;22.93;21.73;;;;;;;;;;5055053;28;20420;-78
2022/09/01 09:56:43;;;;;;;22.43;21.23;;;;;;;;;;5054974;28;20474;-78
2022/09/01 09:59:22;;;;;;;21.73;20.43;;;;;;;;;;5055646;28;20469;-78
2022/09/01 10:01:52;;;;;;;22.37;21.07;;;;;;;;;;5056036;28;20945;-79
2022/09/01 10:04:34;;;;;;;22.63;21.43;;;;;;;;;;5055500;28;20432;-79
2022/09/01 10:07:02;;;;;;;23.50;22.30;;;;;;;;;;5053334;28;20515;-78
2022/09/01 10:09:36;;;;;;;22.30;21.20;;;;;;;;;;5056116;28;20455;-78
2022/09/01 10:12:05;;;;;;;23.30;22.10;;;;;;;;;;5054619;28;20995;-78
2022/09/01 10:14:35;;;;;;;23.57;22.07;;;;;;;;;;5056125;28;20429;-77
2022/09/01 10:17:05;;;;;;;23.43;22.23;;;;;;;;;;5055311;28;20455;-77
2022/09/01 10:19:34;;;;;;;21.23;20.13;;;;;;;;;;5055510;28;20462;-78
2022/09/01 10:22:01;;;;;;;22.67;21.47;;;;;;;;;;5055710;28;20455;-78
2022/09/01 10:24:31;;;;;;;23.03;21.70;;;;;;;;;;5055570;28;20806;-78
2022/09/01 10:26:59;;;;;;;22.37;21.10;;;;;;;;;;5055078;28;20457;-78
2022/09/01 10:29:32;;;;;;;24.10;22.80;;;;;;;;;;5054354;28;20447;-77
2022/09/01 10:32:00;;;;;;;22.80;21.50;;;;;;;;;;5054098;28;20481;-78
2022/09/01 10:34:28;;;;;;;22.57;21.40;;;;;;;;;;5054454;28;20481;-79
2022/09/01 10:36:56;;;;;;;22.77;21.73;;;;;;;;;;5054451;28;20434;-77
2022/09/01 10:39:23;;;;;;;23.30;22.20;;;;;;;;;;5054943;28;20444;-78
2022/09/01 10:41:55;;;;;;;23.53;22.03;;;;;;;;;;5054413;28;20453;-78
2022/09/01 10:44:25;;;;;;;24.07;22.77;;;;;;;;;;5055158;28;20424;-78
2022/09/01 10:46:55;;;;;;;23.80;22.47;;;;;;;;;;5058766;28;20481;-78
2022/09/01 10:49:40;;;;;;;23.57;22.47;;;;;;;;;;5058810;28;20475;-77
2022/09/01 10:52:08;;;;;;;22.47;21.00;;;;;;;;;;5058788;28;20467;-78
2022/09/01 10:54:56;;;;;;;22.43;21.07;;;;;;;;;;5060978;28;20428;-78
2022/09/01 10:57:41;;;;;;;22.63;21.43;;;;;;;;;;5059227;28;20442;-78
2022/09/01 11:00:27;;;;;;;22.53;21.17;;;;;;;;;;5057759;28;20824;-78
2022/09/01 11:03:09;;;;;;;22.83;21.60;;;;;;;;;;5058654;28;20453;-81
2022/09/01 11:05:51;;;;;;;22.63;21.33;;;;;;;;;;5058935;28;20428;-78
2022/09/01 11:08:41;;;;;;;22.13;20.83;;;;;;;;;;5057708;28;20444;-78
2022/09/01 11:11:13;;;;;;;23.17;21.87;;;;;;;;;;5057392;28;20880;-78
2022/09/01 11:13:44;;;;;;;22.13;20.93;;;;;;;;;;5056880;28;20467;-79
2022/09/01 11:16:26;;;;;;;23.00;21.70;;;;;;;;;;5057442;28;20423;-78
2022/09/01 11:18:53;;;;;;;23.13;21.83;;;;;;;;;;5057794;28;20448;-77
2022/09/01 11:21:24;;;;;;;23.23;22.03;;;;;;;;;;5057807;28;20451;-77
2022/09/01 11:24:13;;;;;;;21.47;20.37;;;;;;;;;;5057328;28;20829;-78
2022/09/01 11:26:49;;;;;;;22.17;21.07;;;;;;;;;;5057915;28;20935;-78
2022/09/01 11:29:35;;;;;;;22.63;21.13;;;;;;;;;;5056305;28;20477;-78
2022/09/01 11:32:05;;;;;;;22.40;21.10;;;;;;;;;;5056791;28;20995;-77
2022/09/01 11:34:41;;;;;;;22.00;20.80;;;;;;;;;;5057865;28;20412;-78
2022/09/01 11:37:13;;;;;;;22.37;20.87;;;;;;;;;;5056749;28;20444;-78
2022/09/01 11:39:42;;;;;;;21.43;20.33;;;;;;;;;;5057020;28;20944;-78
2022/09/01 11:42:14;;;;;;;21.47;20.27;;;;;;;;;;5056659;28;20448;-78
2022/09/01 11:44:44;;;;;;;20.10;19.00;;;;;;;;;;5059026;28;20843;-78
2022/09/01 11:47:15;;;;;;;22.00;20.70;;;;;;;;;;5057295;28;20450;-78
2022/09/01 11:49:48;;;;;;;21.27;19.97;;;;;;;;;;5056613;28;20493;-78
2022/09/01 11:52:16;;;;;;;20.93;19.60;;;;;;;;;;5056986;28;20473;-78
2022/09/01 11:54:45;;;;;;;20.57;19.47;;;;;;;;;;5058167;28;20444;-78
2022/09/01 11:57:22;;;;;;;20.30;19.20;;;;;;;;;;5057788;28;20439;-78
2022/09/01 11:59:50;;;;;;;21.43;20.00;;;;;;;;;;5057177;28;20471;-78
2022/09/01 12:02:21;;;;;;;21.57;20.13;;;;;;;;;;5056574;28;20437;-78
2022/09/01 12:04:52;;;;;;;20.70;19.50;;;;;;;;;;5057023;28;20831;-78
2022/09/01 12:07:31;;;;;;;21.80;20.60;;;;;;;;;;5057195;28;20830;-78
2022/09/01 12:09:58;;;;;;;22.00;20.80;;;;;;;;;;5056272;28;20448;-79
2022/09/01 12:12:28;;;;;;;21.50;20.30;;;;;;;;;;5056347;28;20482;-78
2022/09/01 12:14:57;;;;;;;22.37;20.97;;;;;;;;;;5056421;28;20440;-78
2022/09/01 12:17:25;;;;;;;21.67;20.47;;;;;;;;;;5057453;28;20454;-78
2022/09/01 12:19:53;;;;;;;21.60;20.40;;;;;;;;;;5056972;28;20555;-78
2022/09/01 12:22:21;;;;;;;21.77;20.47;;;;;;;;;;5057029;28;20549;-77
2022/09/01 12:24:50;;;;;;;23.10;21.80;;;;;;;;;;5056679;28;20454;-78
2022/09/01 12:27:17;;;;;;;22.17;21.03;;;;;;;;;;5057379;28;20454;-79
2022/09/01 12:29:46;;;;;;;24.37;22.97;;;;;;;;;;5060076;28;20468;-79
2022/09/01 12:32:14;;;;;;;22.87;21.67;;;;;;;;;;5057659;28;20499;-78
2022/09/01 12:34:43;;;;;;;23.07;21.77;;;;;;;;;;5058477;28;20434;-78
2022/09/01 12:37:13;;;;;;;22.80;21.37;;;;;;;;;;5056231;28;20436;-78
2022/09/01 12:39:41;;;;;;;22.10;20.80;;;;;;;;;;5056217;28;20449;-79
2022/09/01 12:42:10;;;;;;;22.67;21.27;;;;;;;;;;5056802;28;20425;-78
2022/09/01 12:44:47;;;;;;;22.70;21.40;;;;;;;;;;5056673;28;20436;-78
2022/09/01 12:47:16;;;;;;;22.33;21.13;;;;;;;;;;5056743;28;20444;-78
2022/09/01 12:49:44;;;;;;;22.20;21.00;;;;;;;;;;5060857;28;20448;-79
2022/09/01 12:52:14;;;;;;;22.43;20.87;;;;;;;;;;5060090;28;20555;-79
2022/09/01 12:54:42;;;;;;;23.90;22.60;;;;;;;;;;5056779;28;20420;-79
2022/09/01 12:57:26;;;;;;;22.63;21.43;;;;;;;;;;5056183;28;20449;-78
2022/09/01 13:00:08;;;;;;;22.03;20.83;;;;;;;;;;5056974;28;20463;-78
2022/09/01 13:02:37;;;;;;;23.30;22.00;;;;;;;;;;5054789;28;20932;-82
2022/09/01 13:05:34;;;;;;;22.57;21.07;;;;;;;;;;5055353;28;20511;-77
2022/09/01 13:08:02;;;;;;;23.30;21.90;;;;;;;;;;4974035;28;20441;-78
2022/09/01 13:10:33;;;;;;;22.40;21.10;;;;;;;;;;5037401;28;20476;-80
2022/09/01 13:13:01;;;;;;;22.10;20.80;;;;;;;;;;5054435;28;20575;-78
2022/09/01 13:15:31;;;;;;;22.97;21.57;;;;;;;;;;5054498;28;20495;-79
2022/09/01 13:17:59;;;;;;;22.57;21.37;;;;;;;;;;5054312;28;20475;-77
2022/09/01 13:20:26;;;;;;;23.77;22.17;;;;;;;;;;5055240;28;20432;-79
2022/09/01 13:22:54;;;;;;;21.87;20.67;;;;;;;;;;5053268;28;20537;-78
2022/09/01 13:25:23;;;;;;;22.13;20.83;;;;;;;;;;5055220;28;20516;-78
2022/09/01 13:27:51;;;;;;;21.93;20.73;;;;;;;;;;5055637;28;20427;-79
2022/09/01 13:30:19;;;;;;;21.90;20.70;;;;;;;;;;5054892;28;20458;-78
2022/09/01 13:32:49;;;;;;;22.57;21.20;;;;;;;;;;5054632;28;20482;-79
2022/09/01 13:35:18;;;;;;;23.77;22.03;;;;;;;;;;5054890;28;20905;-79
2022/09/01 13:37:46;;;;;;;22.73;21.43;;;;;;;;;;5054754;28;20512;-78
2022/09/01 13:40:15;;;;;;;21.20;20.00;;;;;;;;;;5055331;28;20478;-78
2022/09/01 13:42:43;;;;;;;22.30;21.10;;;;;;;;;;5054546;28;20871;-78
2022/09/01 13:45:11;;;;;;;22.40;21.20;;;;;;;;;;5055012;28;20437;-79
2022/09/01 13:47:39;;;;;;;22.10;20.90;;;;;;;;;;5055749;28;20934;-78
2022/09/01 13:50:09;;;;;;;22.57;21.27;;;;;;;;;;5055170;28;20524;-78
2022/09/01 13:52:37;;;;;;;22.67;21.07;;;;;;;;;;5054181;28;20477;-79
2022/09/01 13:55:04;;;;;;;22.30;21.00;;;;;;;;;;5054783;28;20421;-78
2022/09/01 13:57:32;;;;;;;24.00;22.40;;;;;;;;;;5054345;28;20969;-78
2022/09/01 13:59:59;;;;;;;22.30;20.90;;;;;;;;;;5054730;28;20444;-78
2022/09/01 14:02:27;;;;;;;23.60;22.30;;;;;;;;;;5054802;28;20818;-79
2022/09/01 14:04:54;;;;;;;23.10;21.60;;;;;;;;;;5054664;28;20416;-78
2022/09/01 14:07:23;;;;;;;22.37;21.17;;;;;;;;;;5054512;28;20566;-79
2022/09/01 14:09:50;;;;;;;22.90;21.53;;;;;;;;;;5054267;28;20455;-78
2022/09/01 14:12:17;;;;;;;22.47;21.10;;;;;;;;;;5054473;28;20432;-78
2022/09/01 14:14:45;;;;;;;22.00;20.80;;;;;;;;;;5054681;28;20925;-77
2022/09/01 14:17:12;;;;;;;23.40;22.00;;;;;;;;;;5054804;28;20437;-78
2022/09/01 14:19:40;;;;;;;22.70;21.50;;;;;;;;;;5053517;28;20560;-79
2022/09/01 14:22:08;;;;;;;22.50;21.23;;;;;;;;;;5053437;28;20445;-79
2022/09/01 14:24:37;;;;;;;22.97;21.67;;;;;;;;;;5054652;28;20466;-79
2022/09/01 14:27:04;;;;;;;22.60;21.20;;;;;;;;;;5055046;28;20453;-79
2022/09/01 14:29:32;;;;;;;22.30;21.10;;;;;;;;;;5055628;28;20964;-79
2022/09/01 14:31:59;;;;;;;22.67;21.37;;;;;;;;;;5053252;28;20474;-78
2022/09/01 14:34:27;;;;;;;22.60;21.40;;;;;;;;;;5053962;28;20480;-78
2022/09/01 14:36:56;;;;;;;22.93;21.63;;;;;;;;;;5054439;28;20909;-79